createdAt,value
2022-11-12T00:01:32.014Z,6.80
2022-11-12T00:04:17.899Z,6.80
2022-11-12T00:07:03.480Z,6.80
2022-11-12T00:09:49.196Z,6.80
2022-11-12T00:12:36.442Z,6.80
2022-11-12T00:15:22.164Z,6.80
2022-11-12T00:18:08.107Z,6.80
2022-11-12T00:20:53.846Z,6.80
2022-11-12T00:23:39.307Z,6.80
2022-11-12T00:26:24.886Z,6.80
2022-11-12T00:29:10.501Z,6.90
2022-11-12T00:31:56.338Z,6.90
2022-11-12T00:34:41.988Z,6.80
2022-11-12T00:37:27.447Z,6.90
2022-11-12T00:40:13.229Z,6.80
2022-11-12T00:42:58.922Z,6.80
2022-11-12T00:45:44.484Z,6.80
2022-11-12T00:48:29.882Z,6.90
2022-11-12T00:51:15.446Z,6.80
2022-11-12T00:54:01.550Z,6.90
2022-11-12T00:56:47.749Z,6.80
2022-11-12T00:59:33.619Z,6.90
2022-11-12T01:02:20.590Z,6.80
2022-11-12T01:05:06.549Z,6.90
2022-11-12T01:07:55.942Z,6.90
2022-11-12T01:10:41.965Z,6.80
2022-11-12T01:13:27.594Z,6.90
2022-11-12T01:16:22.478Z,6.90
2022-11-12T01:19:13.524Z,6.90
2022-11-12T01:21:59.396Z,6.90
2022-11-12T01:24:45.055Z,6.90
2022-11-12T01:27:33.315Z,6.90
2022-11-12T01:30:19.031Z,6.90
2022-11-12T01:33:04.839Z,6.90
2022-11-12T01:35:50.259Z,6.90
2022-11-12T01:38:37.537Z,6.90
2022-11-12T01:41:27.008Z,6.90
2022-11-12T01:44:17.547Z,6.90
2022-11-12T01:47:21.633Z,6.90
2022-11-12T01:50:16.139Z,6.90
2022-11-12T01:53:06.364Z,6.80
2022-11-12T01:55:53.088Z,6.90
2022-11-12T01:58:40.302Z,6.90
2022-11-12T02:01:26.460Z,6.80
2022-11-12T02:04:12.466Z,6.80
2022-11-12T02:06:59.630Z,6.80
2022-11-12T02:09:45.149Z,6.80
2022-11-12T02:12:49.352Z,6.80
2022-11-12T02:15:34.908Z,6.70
2022-11-12T02:18:20.242Z,6.70
2022-11-12T02:21:09.158Z,6.70
2022-11-12T02:24:13.230Z,6.70
2022-11-12T02:26:59.530Z,6.70
2022-11-12T02:29:47.722Z,6.70
2022-11-12T02:32:33.218Z,6.70
2022-11-12T02:35:19.101Z,6.60
2022-11-12T02:38:06.146Z,6.70
2022-11-12T02:40:52.316Z,6.70
2022-11-12T02:43:37.903Z,6.60
2022-11-12T02:46:23.328Z,6.60
2022-11-12T02:49:08.934Z,6.60
2022-11-12T02:51:54.454Z,6.60
2022-11-12T02:54:40.129Z,6.60
2022-11-12T02:57:26.162Z,6.60
2022-11-12T03:00:15.761Z,6.60
2022-11-12T03:03:01.871Z,6.70
2022-11-12T03:05:56.975Z,6.70
2022-11-12T03:08:42.748Z,6.70
2022-11-12T03:11:28.400Z,6.70
2022-11-12T03:14:13.598Z,6.70
2022-11-12T03:16:59.211Z,6.70
2022-11-12T03:19:44.722Z,6.70
2022-11-12T03:22:30.415Z,6.70
2022-11-12T03:25:16.032Z,6.70
2022-11-12T03:28:04.958Z,6.70
2022-11-12T03:30:50.257Z,6.70
2022-11-12T03:33:35.912Z,6.70
2022-11-12T03:36:21.271Z,6.70
2022-11-12T03:39:07.109Z,6.70
2022-11-12T03:41:52.834Z,6.70
2022-11-12T03:44:38.381Z,6.70
2022-11-12T03:47:23.959Z,6.70
2022-11-12T03:50:10.430Z,6.70
2022-11-12T03:52:58.298Z,6.70
2022-11-12T03:55:44.050Z,6.70
2022-11-12T03:58:29.596Z,6.70
2022-11-12T04:01:15.609Z,6.70
2022-11-12T04:04:01.075Z,6.70
2022-11-12T04:07:05.132Z,6.70
2022-11-12T04:09:50.973Z,6.60
2022-11-12T04:12:55.128Z,6.60
2022-11-12T04:15:40.505Z,6.60
2022-11-12T04:18:44.195Z,6.60
2022-11-12T04:21:51.123Z,6.60
2022-11-12T04:24:59.834Z,6.50
2022-11-12T04:27:45.144Z,6.50
2022-11-12T04:30:33.491Z,6.50
2022-11-12T04:33:19.031Z,6.50
2022-11-12T04:36:04.813Z,6.50
2022-11-12T04:38:50.538Z,6.40
2022-11-12T04:41:54.593Z,6.40
2022-11-12T04:45:01.485Z,6.40
2022-11-12T04:47:47.116Z,6.40
2022-11-12T04:50:32.884Z,6.40
2022-11-12T04:53:18.631Z,6.30
2022-11-12T04:56:04.219Z,6.30
2022-11-12T04:58:49.974Z,6.30
2022-11-12T05:01:37.316Z,6.30
2022-11-12T05:04:23.142Z,6.20
2022-11-12T05:07:10.486Z,6.30
2022-11-12T05:09:55.969Z,6.20
2022-11-12T05:12:42.754Z,6.20
2022-11-12T05:15:28.441Z,6.20
2022-11-12T05:18:13.780Z,6.20
2022-11-12T05:21:19.365Z,6.10
2022-11-12T05:24:04.859Z,6.20
2022-11-12T05:26:50.886Z,6.20
2022-11-12T05:29:36.688Z,6.20
2022-11-12T05:32:22.079Z,6.20
2022-11-12T05:35:08.051Z,6.20
2022-11-12T05:37:53.767Z,6.20
2022-11-12T05:40:39.160Z,6.20
2022-11-12T05:43:24.792Z,6.20
2022-11-12T05:46:13.132Z,6.20
2022-11-12T05:48:58.398Z,6.20
2022-11-12T05:51:44.734Z,6.20
2022-11-12T05:54:30.442Z,6.30
2022-11-12T05:57:15.611Z,6.20
2022-11-12T06:00:01.165Z,6.20
2022-11-12T06:02:46.727Z,6.30
2022-11-12T06:05:33.628Z,6.20
2022-11-12T06:08:19.446Z,6.30
2022-11-12T06:11:05.405Z,6.30
2022-11-12T06:13:50.729Z,6.30
2022-11-12T06:16:36.251Z,6.30
2022-11-12T06:19:21.621Z,6.40
2022-11-12T06:22:07.307Z,6.40
2022-11-12T06:24:55.799Z,6.40
2022-11-12T06:27:41.870Z,6.40
2022-11-12T06:30:27.565Z,6.50
2022-11-12T06:33:13.050Z,6.50
2022-11-12T06:36:03.873Z,6.50
2022-11-12T06:38:49.621Z,6.60
2022-11-12T06:41:35.544Z,6.50
2022-11-12T06:44:22.322Z,6.60
2022-11-12T06:47:07.898Z,6.60
2022-11-12T06:49:53.580Z,6.70
2022-11-12T06:52:39.103Z,6.70
2022-11-12T06:55:24.613Z,6.80
2022-11-12T06:58:10.190Z,6.90
2022-11-12T07:00:55.745Z,6.90
2022-11-12T07:03:42.295Z,7.00
2022-11-12T07:06:28.392Z,7.00
2022-11-12T07:09:13.961Z,7.00
2022-11-12T07:11:59.449Z,7.00
2022-11-12T07:14:45.063Z,7.10
2022-11-12T07:17:31.091Z,7.10
2022-11-12T07:20:16.640Z,7.20
2022-11-12T07:23:02.612Z,7.20
2022-11-12T07:25:47.938Z,7.30
2022-11-12T07:28:33.909Z,7.30
2022-11-12T07:31:20.567Z,7.40
2022-11-12T07:34:06.455Z,7.50
2022-11-12T07:36:51.970Z,7.60
2022-11-12T07:39:37.166Z,7.60
2022-11-12T07:42:22.941Z,7.70
2022-11-12T07:45:08.893Z,7.70
2022-11-12T07:47:54.739Z,7.70
2022-11-12T07:50:40.490Z,7.70
2022-11-12T07:53:26.122Z,7.70
2022-11-12T07:56:23.913Z,7.70
2022-11-12T07:59:09.742Z,7.70
2022-11-12T08:01:55.422Z,7.70
2022-11-12T08:04:40.888Z,7.80
2022-11-12T08:07:26.659Z,7.90
2022-11-12T08:10:12.300Z,8.00
2022-11-12T08:12:58.195Z,8.10
2022-11-12T08:15:48.017Z,8.30
2022-11-12T08:18:36.645Z,8.60
2022-11-12T08:21:22.357Z,8.70
2022-11-12T08:24:08.086Z,8.80
2022-11-12T08:26:53.660Z,8.80
2022-11-12T08:29:39.205Z,8.80
2022-11-12T08:32:24.829Z,8.90
2022-11-12T08:35:10.613Z,8.90
2022-11-12T08:38:00.762Z,8.90
2022-11-12T08:40:47.487Z,8.90
2022-11-12T08:43:32.876Z,9.00
2022-11-12T08:46:18.644Z,9.10
2022-11-12T08:49:04.493Z,9.10
2022-11-12T08:51:50.097Z,9.10
2022-11-12T08:54:35.736Z,9.20
2022-11-12T08:57:21.723Z,9.20
2022-11-12T09:00:07.985Z,9.30
2022-11-12T09:02:53.744Z,9.30
2022-11-12T09:05:39.342Z,9.40
2022-11-12T09:08:25.972Z,9.40
2022-11-12T09:11:11.748Z,9.50
2022-11-12T09:13:57.418Z,9.70
2022-11-12T09:16:43.456Z,9.80
2022-11-12T09:19:28.820Z,9.80
2022-11-12T09:22:14.310Z,9.90
2022-11-12T09:24:59.890Z,10.00
2022-11-12T09:27:48.454Z,10.20
2022-11-12T09:30:34.601Z,10.30
2022-11-12T09:33:27.123Z,10.40
2022-11-12T09:36:12.912Z,10.60
2022-11-12T09:38:58.639Z,10.70
2022-11-12T09:41:44.311Z,10.80
2022-11-12T09:44:36.531Z,10.90
2022-11-12T09:47:27.543Z,11.00
2022-11-12T09:50:38.312Z,11.10
2022-11-12T09:54:00.942Z,11.20
2022-11-12T09:56:51.604Z,11.10
2022-11-12T09:59:41.079Z,11.30
2022-11-12T10:02:36.472Z,11.40
2022-11-12T10:05:47.937Z,11.60
2022-11-12T10:09:16.424Z,11.70
2022-11-12T10:12:33.599Z,11.70
2022-11-12T10:15:53.075Z,11.70
2022-11-12T10:19:10.709Z,11.90
2022-11-12T10:22:17.739Z,12.00
2022-11-12T10:25:18.000Z,12.10
2022-11-12T10:28:39.312Z,12.20
2022-11-12T10:31:25.168Z,12.30
2022-11-12T10:34:13.724Z,12.50
2022-11-12T10:37:12.885Z,12.50
2022-11-12T10:39:58.476Z,12.40
2022-11-12T10:42:59.205Z,12.50
2022-11-12T10:45:46.614Z,12.40
2022-11-12T10:48:34.483Z,12.40
2022-11-12T10:51:27.157Z,12.50
2022-11-12T10:54:35.568Z,12.60
2022-11-12T10:57:24.600Z,12.50
2022-11-12T11:00:13.342Z,12.60
2022-11-12T11:03:00.622Z,12.60
2022-11-12T11:05:58.271Z,12.60
2022-11-12T11:08:50.231Z,12.70
2022-11-12T11:11:35.743Z,12.80
2022-11-12T11:14:28.575Z,12.80
2022-11-12T11:17:18.472Z,12.90
2022-11-12T11:20:25.516Z,12.90
2022-11-12T11:23:20.928Z,12.80
2022-11-12T11:26:49.374Z,12.60
2022-11-12T11:29:44.256Z,12.50
2022-11-12T11:32:50.307Z,12.40
2022-11-12T11:36:08.482Z,12.50
2022-11-12T11:39:03.061Z,12.50
2022-11-12T11:42:07.524Z,12.40
2022-11-12T11:45:22.007Z,12.40
2022-11-12T11:48:25.933Z,12.40
2022-11-12T11:51:28.178Z,12.40
2022-11-12T11:54:45.664Z,12.40
2022-11-12T11:57:56.651Z,12.50
2022-11-12T12:00:45.488Z,12.50
2022-11-12T12:04:15.373Z,12.50
2022-11-12T12:07:12.498Z,12.40
2022-11-12T12:10:18.189Z,12.40
2022-11-12T12:13:09.542Z,12.30
2022-11-12T12:16:00.857Z,12.20
2022-11-12T12:19:21.886Z,12.20
2022-11-12T12:22:14.648Z,12.20
2022-11-12T12:25:10.886Z,12.30
2022-11-12T12:28:05.221Z,12.30
2022-11-12T12:30:58.185Z,12.40
2022-11-12T12:33:47.346Z,12.30
2022-11-12T12:36:38.295Z,12.30
2022-11-12T12:39:47.845Z,12.30
2022-11-12T12:42:45.249Z,12.40
2022-11-12T12:45:36.127Z,12.40
2022-11-12T12:48:29.317Z,12.40
2022-11-12T12:51:15.067Z,12.40
2022-11-12T12:54:00.860Z,12.30
2022-11-12T12:56:49.067Z,12.40
2022-11-12T12:59:34.977Z,12.40
2022-11-12T13:02:25.536Z,12.40
2022-11-12T13:05:32.973Z,12.40
2022-11-12T13:08:25.783Z,12.40
2022-11-12T13:11:51.381Z,12.40
2022-11-12T13:14:39.653Z,12.40
2022-11-12T13:17:46.921Z,12.40
2022-11-12T13:20:35.577Z,12.40
2022-11-12T13:24:05.901Z,12.40
2022-11-12T13:26:56.002Z,12.40
2022-11-12T13:29:42.841Z,12.40
2022-11-12T13:32:35.903Z,12.40
2022-11-12T13:35:35.064Z,12.40
2022-11-12T13:38:20.776Z,12.40
2022-11-12T13:41:17.572Z,12.30
2022-11-12T13:44:08.083Z,12.30
2022-11-12T13:46:56.032Z,12.30
2022-11-12T13:49:43.917Z,12.30
2022-11-12T13:52:30.131Z,12.30
2022-11-12T13:55:21.798Z,12.20
2022-11-12T13:58:30.608Z,12.20
2022-11-12T14:01:20.996Z,12.20
2022-11-12T14:04:10.908Z,12.20
2022-11-12T14:07:28.174Z,12.20
2022-11-12T14:10:52.239Z,12.20
2022-11-12T14:14:08.638Z,12.10
2022-11-12T14:17:19.530Z,12.10
2022-11-12T14:20:07.842Z,12.10
2022-11-12T14:22:54.522Z,12.00
2022-11-12T14:25:54.245Z,12.00
2022-11-12T14:28:40.242Z,12.00
2022-11-12T14:31:26.401Z,12.00
2022-11-12T14:34:41.469Z,11.90
2022-11-12T14:37:42.908Z,11.90
2022-11-12T14:40:30.965Z,11.90
2022-11-12T14:43:43.020Z,11.90
2022-11-12T14:46:47.615Z,11.90
2022-11-12T14:49:45.360Z,11.80
2022-11-12T14:52:36.347Z,11.70
2022-11-12T14:55:29.110Z,11.70
2022-11-12T14:58:16.721Z,11.70
2022-11-12T15:02:08.829Z,11.60
2022-11-12T15:04:43.501Z,11.60
2022-11-12T15:07:34.694Z,11.60
2022-11-12T15:10:35.606Z,11.50
2022-11-12T15:13:26.896Z,11.50
2022-11-12T15:16:20.033Z,11.50
2022-11-12T15:19:24.000Z,11.50
2022-11-12T15:22:21.286Z,11.40
2022-11-12T15:25:21.113Z,11.40
2022-11-12T15:28:23.985Z,11.40
2022-11-12T15:31:21.715Z,11.40
2022-11-12T15:34:30.681Z,11.30
2022-11-12T15:37:19.545Z,11.40
2022-11-12T15:40:18.881Z,11.30
2022-11-12T15:43:10.864Z,11.30
2022-11-12T15:45:57.110Z,11.30
2022-11-12T15:48:42.852Z,11.20
2022-11-12T15:51:28.528Z,11.20
2022-11-12T15:54:14.073Z,11.20
2022-11-12T15:56:59.834Z,11.20
2022-11-12T15:59:48.177Z,11.10
2022-11-12T16:02:33.970Z,11.20
2022-11-12T16:05:19.617Z,11.10
2022-11-12T16:08:05.418Z,11.10
2022-11-12T16:10:51.203Z,11.10
2022-11-12T16:13:36.734Z,11.00
2022-11-12T16:16:22.722Z,11.00
2022-11-12T16:19:15.113Z,10.90
2022-11-12T16:22:01.480Z,10.90
2022-11-12T16:24:47.325Z,10.90
2022-11-12T16:27:33.087Z,10.80
2022-11-12T16:30:25.655Z,10.80
2022-11-12T16:33:13.131Z,10.70
2022-11-12T16:35:58.549Z,10.70
2022-11-12T16:38:45.944Z,10.70
2022-11-12T16:41:32.111Z,10.70
2022-11-12T16:44:17.915Z,10.60
2022-11-12T16:47:04.746Z,10.60
2022-11-12T16:49:50.554Z,10.50
2022-11-12T16:52:36.269Z,10.50
2022-11-12T16:55:22.234Z,10.40
2022-11-12T16:58:07.844Z,10.40
2022-11-12T17:00:53.847Z,10.40
2022-11-12T17:03:39.380Z,10.40
2022-11-12T17:06:37.100Z,10.30
2022-11-12T17:09:22.752Z,10.30
2022-11-12T17:12:09.309Z,10.20
2022-11-12T17:14:54.472Z,10.20
2022-11-12T17:17:39.934Z,10.20
2022-11-12T17:20:26.151Z,10.20
2022-11-12T17:23:11.534Z,10.20
2022-11-12T17:26:05.645Z,10.20
2022-11-12T17:28:57.551Z,10.20
2022-11-12T17:31:49.790Z,10.20
2022-11-12T17:34:35.346Z,10.10
2022-11-12T17:37:21.274Z,10.10
2022-11-12T17:40:08.036Z,10.10
2022-11-12T17:42:54.153Z,10.10
2022-11-12T17:45:52.167Z,10.10
2022-11-12T17:48:38.675Z,10.10
2022-11-12T17:51:29.855Z,10.10
2022-11-12T17:54:15.488Z,10.10
2022-11-12T17:57:01.526Z,10.10
2022-11-12T17:59:47.434Z,10.10
2022-11-12T18:02:33.308Z,10.10
2022-11-12T18:05:19.024Z,10.10
2022-11-12T18:08:04.971Z,10.10
2022-11-12T18:10:51.817Z,10.10
2022-11-12T18:13:38.420Z,10.10
2022-11-12T18:16:29.084Z,10.10
2022-11-12T18:19:15.881Z,10.10
2022-11-12T18:22:02.681Z,10.10
2022-11-12T18:24:48.830Z,10.10
2022-11-12T18:27:34.771Z,10.10
2022-11-12T18:30:20.496Z,10.10
2022-11-12T18:33:06.907Z,10.10
2022-11-12T18:36:07.703Z,10.10
2022-11-12T18:38:54.932Z,10.10
2022-11-12T18:41:40.874Z,10.10
2022-11-12T18:44:26.694Z,10.10
2022-11-12T18:47:12.426Z,10.10
2022-11-12T18:49:58.015Z,10.10
2022-11-12T18:52:43.611Z,10.10
2022-11-12T18:55:29.007Z,10.00
2022-11-12T18:58:14.579Z,10.10
2022-11-12T19:01:09.329Z,10.10
2022-11-12T19:03:57.085Z,10.10
2022-11-12T19:06:42.783Z,10.00
2022-11-12T19:09:30.979Z,10.10
2022-11-12T19:12:16.811Z,10.00
2022-11-12T19:15:02.947Z,10.00
2022-11-12T19:17:48.300Z,10.00
2022-11-12T19:20:33.965Z,10.10
2022-11-12T19:23:20.245Z,10.00
2022-11-12T19:26:08.489Z,10.00
2022-11-12T19:28:54.882Z,10.00
2022-11-12T19:31:41.371Z,10.00
2022-11-12T19:34:27.209Z,10.00
2022-11-12T19:37:32.297Z,10.00
2022-11-12T19:40:19.190Z,10.00
2022-11-12T19:43:05.013Z,10.00
2022-11-12T19:45:50.441Z,10.00
2022-11-12T19:48:36.451Z,10.00
2022-11-12T19:51:22.401Z,10.00
2022-11-12T19:54:08.591Z,10.00
2022-11-12T19:56:54.172Z,10.00
2022-11-12T19:59:40.352Z,10.00
2022-11-12T20:02:26.587Z,10.00
2022-11-12T20:05:12.376Z,10.00
2022-11-12T20:07:58.236Z,10.00
2022-11-12T20:10:43.986Z,10.00
2022-11-12T20:13:29.832Z,9.90
2022-11-12T20:16:22.260Z,9.90
2022-11-12T20:19:10.948Z,9.90
2022-11-12T20:21:57.193Z,9.80
2022-11-12T20:24:42.702Z,9.80
2022-11-12T20:27:29.033Z,9.80
2022-11-12T20:30:14.785Z,9.80
2022-11-12T20:33:01.217Z,9.80
2022-11-12T20:35:46.662Z,9.80
2022-11-12T20:38:35.591Z,9.80
2022-11-12T20:41:23.642Z,9.80
2022-11-12T20:44:09.305Z,9.70
2022-11-12T20:46:55.107Z,9.70
2022-11-12T20:49:40.521Z,9.60
2022-11-12T20:52:27.158Z,9.60
2022-11-12T20:55:12.871Z,9.50
2022-11-12T20:57:58.826Z,9.50
2022-11-12T21:00:44.500Z,9.50
2022-11-12T21:03:30.786Z,9.40
2022-11-12T21:06:19.533Z,9.40
2022-11-12T21:09:05.216Z,9.40
2022-11-12T21:11:51.981Z,9.40
2022-11-12T21:14:37.984Z,9.40
2022-11-12T21:17:25.179Z,9.30
2022-11-12T21:20:10.820Z,9.30
2022-11-12T21:22:57.767Z,9.20
2022-11-12T21:25:43.415Z,9.20
2022-11-12T21:28:29.534Z,9.10
2022-11-12T21:31:37.220Z,9.10
2022-11-12T21:34:22.955Z,9.00
2022-11-12T21:37:08.320Z,9.00
2022-11-12T21:39:53.741Z,8.90
2022-11-12T21:42:42.883Z,8.90
2022-11-12T21:45:28.285Z,8.90
2022-11-12T21:48:13.894Z,8.90
2022-11-12T21:51:07.738Z,8.80
2022-11-12T21:53:55.234Z,8.80
2022-11-12T21:56:42.354Z,8.70
2022-11-12T21:59:28.056Z,8.70
2022-11-12T22:02:14.287Z,8.70
2022-11-12T22:04:59.836Z,8.60
2022-11-12T22:07:45.217Z,8.60
2022-11-12T22:10:30.904Z,8.50
2022-11-12T22:13:31.774Z,8.50
2022-11-12T22:16:22.816Z,8.50
2022-11-12T22:19:08.660Z,8.40
2022-11-12T22:21:54.302Z,8.40
2022-11-12T22:24:39.875Z,8.40
2022-11-12T22:27:25.826Z,8.30
2022-11-12T22:30:11.578Z,8.30
2022-11-12T22:32:57.174Z,8.20
2022-11-12T22:35:42.610Z,8.20
2022-11-12T22:38:42.390Z,8.20
2022-11-12T22:41:31.811Z,8.20
2022-11-12T22:44:18.782Z,8.10
2022-11-12T22:47:04.406Z,8.10
2022-11-12T22:49:50.117Z,8.10
2022-11-12T22:52:35.603Z,8.00
2022-11-12T22:55:20.965Z,8.00
2022-11-12T22:58:06.548Z,7.90
2022-11-12T23:00:52.266Z,7.90
2022-11-12T23:03:38.051Z,7.90
2022-11-12T23:06:24.357Z,7.90
2022-11-12T23:09:16.197Z,7.90
2022-11-12T23:12:01.880Z,7.90
2022-11-12T23:14:47.372Z,7.80
2022-11-12T23:17:32.858Z,7.80
2022-11-12T23:20:18.670Z,7.80
2022-11-12T23:23:04.202Z,7.70
2022-11-12T23:25:50.060Z,7.70
2022-11-12T23:28:36.304Z,7.70
2022-11-12T23:31:26.724Z,7.60
2022-11-12T23:34:13.021Z,7.60
2022-11-12T23:36:58.367Z,7.60
2022-11-12T23:39:43.794Z,7.60
2022-11-12T23:42:29.691Z,7.60
2022-11-12T23:45:14.989Z,7.50
2022-11-12T23:48:00.547Z,7.50
2022-11-12T23:50:47.641Z,7.40
2022-11-12T23:53:34.743Z,7.50
2022-11-12T23:56:20.382Z,7.50
2022-11-12T23:59:05.765Z,7.50
